createdAt,value
2019-01-06T00:01:57.405Z,100539.71
2019-01-06T00:04:24.432Z,100534.48
2019-01-06T00:06:51.559Z,100537.16
2019-01-06T00:09:18.561Z,100541.13
2019-01-06T00:11:45.747Z,100535.33
2019-01-06T00:14:12.696Z,100537.48
2019-01-06T00:16:39.625Z,100532.31
2019-01-06T00:19:06.521Z,100537.85
2019-01-06T00:21:35.430Z,100536.41
2019-01-06T00:24:02.619Z,100533.39
2019-01-06T00:26:30.549Z,100538.64
2019-01-06T00:28:57.537Z,100546.19
2019-01-06T00:31:24.496Z,100560.88
2019-01-06T00:33:51.445Z,100567.45
2019-01-06T00:36:18.566Z,100563.39
2019-01-06T00:38:45.600Z,100572.42
2019-01-06T00:41:12.530Z,100577.16
2019-01-06T00:43:39.464Z,100570.88
2019-01-06T00:46:06.434Z,100575.11
2019-01-06T00:48:33.638Z,100577.19
2019-01-06T00:51:00.525Z,100579.17
2019-01-06T00:53:27.778Z,100574.42
2019-01-06T00:55:54.997Z,100579.95
2019-01-06T00:58:21.978Z,100581.91
2019-01-06T01:00:48.951Z,100590.47
2019-01-06T01:03:15.889Z,100593.17
2019-01-06T01:05:43.016Z,100594.39
2019-01-06T01:08:09.913Z,100597.38
2019-01-06T01:10:36.893Z,100591.53
2019-01-06T01:13:04.134Z,100601.16
2019-01-06T01:15:31.265Z,100586.11
2019-01-06T01:17:58.179Z,100588.81
2019-01-06T01:20:25.122Z,100596.63
2019-01-06T01:22:52.005Z,100597.92
2019-01-06T01:25:19.181Z,100595.17
2019-01-06T01:27:46.434Z,100591.84
2019-01-06T01:30:13.769Z,100590.74
2019-01-06T01:32:40.650Z,100596.79
2019-01-06T01:35:07.894Z,100599.61
2019-01-06T01:37:35.359Z,100595.05
2019-01-06T01:40:02.316Z,100603.25
2019-01-06T01:42:29.269Z,100604.00
2019-01-06T01:44:56.214Z,100609.84
2019-01-06T01:47:23.192Z,100609.84
2019-01-06T01:49:50.172Z,100614.78
2019-01-06T01:52:17.158Z,100610.49
2019-01-06T01:54:44.098Z,100619.09
2019-01-06T01:57:11.234Z,100619.31
2019-01-06T01:59:38.109Z,100630.84
2019-01-06T02:02:05.269Z,100635.28
2019-01-06T02:04:32.153Z,100635.33
2019-01-06T02:06:59.292Z,100642.91
2019-01-06T02:09:26.168Z,100636.98
2019-01-06T02:11:53.119Z,100639.33
2019-01-06T02:14:20.340Z,100640.16
2019-01-06T02:16:47.338Z,100632.42
2019-01-06T02:19:14.567Z,100635.67
2019-01-06T02:21:41.514Z,100637.21
2019-01-06T02:24:08.381Z,100636.50
2019-01-06T02:26:35.355Z,100637.53
2019-01-06T02:29:02.297Z,100642.00
2019-01-06T02:31:29.237Z,100644.67
2019-01-06T02:33:56.370Z,100646.21
2019-01-06T02:36:23.265Z,100646.99
2019-01-06T02:38:50.486Z,100651.55
2019-01-06T02:41:17.375Z,100653.28
2019-01-06T02:43:44.613Z,100653.83
2019-01-06T02:46:11.591Z,100657.21
2019-01-06T02:48:38.794Z,100662.00
2019-01-06T02:51:05.689Z,100659.56
2019-01-06T02:53:32.645Z,100671.15
2019-01-06T02:55:59.839Z,100673.00
2019-01-06T02:58:26.795Z,100666.66
2019-01-06T03:00:53.944Z,100671.19
2019-01-06T03:03:20.817Z,100667.34
2019-01-06T03:05:48.156Z,100676.38
2019-01-06T03:08:15.402Z,100675.63
2019-01-06T03:10:42.592Z,100678.25
2019-01-06T03:13:09.569Z,100668.09
2019-01-06T03:15:36.438Z,100666.12
2019-01-06T03:18:03.430Z,100670.80
2019-01-06T03:20:30.313Z,100663.14
2019-01-06T03:22:57.278Z,100667.93
2019-01-06T03:25:24.546Z,100668.05
2019-01-06T03:27:51.529Z,100676.27
2019-01-06T03:30:19.387Z,100675.13
2019-01-06T03:32:46.343Z,100670.41
2019-01-06T03:35:13.303Z,100673.63
2019-01-06T03:37:40.297Z,100665.93
2019-01-06T03:40:07.221Z,100659.80
2019-01-06T03:42:34.093Z,100645.23
2019-01-06T03:45:01.328Z,100647.34
2019-01-06T03:47:28.621Z,100638.75
2019-01-06T03:49:55.585Z,100633.69
2019-01-06T03:52:22.531Z,100633.13
2019-01-06T03:54:49.682Z,100631.91
2019-01-06T03:57:16.806Z,100627.03
2019-01-06T03:59:43.724Z,100640.63
2019-01-06T04:02:10.706Z,100645.06
2019-01-06T04:04:37.595Z,100640.07
2019-01-06T04:07:04.721Z,100641.18
2019-01-06T04:09:31.617Z,100647.39
2019-01-06T04:11:58.837Z,100635.00
2019-01-06T04:14:25.831Z,100633.51
2019-01-06T04:16:52.773Z,100634.69
2019-01-06T04:19:19.701Z,100639.88
2019-01-06T04:21:46.619Z,100642.85
2019-01-06T04:24:13.808Z,100641.05
2019-01-06T04:26:40.784Z,100632.09
2019-01-06T04:29:07.726Z,100635.41
2019-01-06T04:31:34.661Z,100631.83
2019-01-06T04:34:01.586Z,100638.98
2019-01-06T04:36:28.745Z,100641.64
2019-01-06T04:38:55.632Z,100643.53
2019-01-06T04:41:22.601Z,100643.22
2019-01-06T04:43:49.577Z,100650.80
2019-01-06T04:46:16.802Z,100648.91
2019-01-06T04:48:43.686Z,100650.17
2019-01-06T04:51:11.823Z,100654.81
2019-01-06T04:53:38.982Z,100651.98
2019-01-06T04:56:05.866Z,100652.22
2019-01-06T04:58:32.807Z,100652.45
2019-01-06T05:04:01.473Z,100658.70
2019-01-06T05:06:28.466Z,100657.17
2019-01-06T05:08:55.398Z,100657.77
2019-01-06T05:11:24.930Z,100657.34
2019-01-06T05:13:51.813Z,100662.86
2019-01-06T05:16:18.955Z,100660.12
2019-01-06T05:18:45.862Z,100666.66
2019-01-06T05:21:14.087Z,100670.25
2019-01-06T05:23:41.324Z,100665.21
2019-01-06T05:26:08.191Z,100669.81
2019-01-06T05:28:35.561Z,100674.43
2019-01-06T05:31:02.442Z,100672.27
2019-01-06T05:33:29.453Z,100680.59
2019-01-06T05:35:56.370Z,100690.91
2019-01-06T05:38:23.329Z,100693.88
2019-01-06T05:40:50.189Z,100694.06
2019-01-06T05:43:17.107Z,100699.36
2019-01-06T05:45:44.098Z,100697.16
2019-01-06T05:48:11.002Z,100698.70
2019-01-06T05:50:37.960Z,100695.17
2019-01-06T05:53:04.909Z,100699.83
2019-01-06T05:55:32.037Z,100702.83
2019-01-06T05:57:59.221Z,100703.97
2019-01-06T06:00:26.173Z,100706.53
2019-01-06T06:02:53.290Z,100709.74
2019-01-06T06:05:20.173Z,100712.61
2019-01-06T06:07:47.342Z,100714.42
2019-01-06T06:10:14.581Z,100712.81
2019-01-06T06:12:41.535Z,100719.02
2019-01-06T06:15:08.775Z,100721.28
2019-01-06T06:17:35.970Z,100725.41
2019-01-06T06:20:03.124Z,100727.45
2019-01-06T06:22:30.317Z,100730.00
2019-01-06T06:24:57.277Z,100727.89
2019-01-06T06:27:24.213Z,100730.67
2019-01-06T06:29:51.087Z,100734.27
2019-01-06T06:32:17.955Z,100745.41
2019-01-06T06:34:44.823Z,100748.42
2019-01-06T06:37:11.709Z,100755.67
2019-01-06T06:39:39.049Z,100756.45
2019-01-06T06:42:06.010Z,100753.25
2019-01-06T06:44:32.874Z,100752.95
2019-01-06T06:46:59.768Z,100755.02
2019-01-06T06:49:26.999Z,100761.13
2019-01-06T06:51:53.965Z,100759.14
2019-01-06T06:54:21.218Z,100765.08
2019-01-06T06:56:48.171Z,100768.84
2019-01-06T06:59:15.393Z,100767.41
2019-01-06T07:01:42.281Z,100772.62
2019-01-06T07:04:09.233Z,100772.84
2019-01-06T07:06:36.169Z,100779.64
2019-01-06T07:09:03.372Z,100772.87
2019-01-06T07:11:30.430Z,100780.86
2019-01-06T07:13:57.324Z,100791.73
2019-01-06T07:16:24.504Z,100789.66
2019-01-06T07:18:51.445Z,100788.70
2019-01-06T07:21:18.591Z,100790.83
2019-01-06T07:23:45.541Z,100792.81
2019-01-06T07:26:12.787Z,100797.54
2019-01-06T07:28:40.010Z,100801.36
2019-01-06T07:31:07.222Z,100805.91
2019-01-06T07:33:34.472Z,100813.92
2019-01-06T07:36:01.605Z,100811.94
2019-01-06T07:38:28.501Z,100818.57
2019-01-06T07:40:55.525Z,100823.07
2019-01-06T07:43:22.481Z,100822.43
2019-01-06T07:45:49.755Z,100821.77
2019-01-06T07:48:16.902Z,100821.34
2019-01-06T07:50:44.034Z,100832.95
2019-01-06T07:53:11.921Z,100832.05
2019-01-06T07:55:39.265Z,100843.89
2019-01-06T07:58:06.601Z,100839.41
2019-01-06T08:00:33.467Z,100831.32
2019-01-06T08:03:00.434Z,100840.41
2019-01-06T08:05:27.317Z,100846.05
2019-01-06T08:07:55.752Z,100844.39
2019-01-06T08:10:26.457Z,100849.12
2019-01-06T08:12:53.550Z,100854.51
2019-01-06T08:15:20.678Z,100855.95
2019-01-06T08:17:47.809Z,100849.92
2019-01-06T08:20:15.746Z,100851.25
2019-01-06T08:22:42.680Z,100852.33
2019-01-06T08:25:09.638Z,100850.65
2019-01-06T08:27:36.593Z,100849.16
2019-01-06T08:30:03.467Z,100852.30
2019-01-06T08:32:30.416Z,100855.72
2019-01-06T08:35:02.793Z,100857.93
2019-01-06T08:37:30.330Z,100859.19
2019-01-06T08:39:57.439Z,100861.02
2019-01-06T08:42:24.605Z,100871.59
2019-01-06T08:44:51.528Z,100866.44
2019-01-06T08:47:19.000Z,100870.94
2019-01-06T08:49:45.884Z,100871.63
2019-01-06T08:52:14.237Z,100868.38
2019-01-06T08:54:41.382Z,100874.37
2019-01-06T08:57:08.253Z,100884.08
2019-01-06T08:59:36.285Z,100879.66
2019-01-06T09:02:03.585Z,100875.16
2019-01-06T09:04:30.545Z,100882.00
2019-01-06T09:06:57.749Z,100882.09
2019-01-06T09:09:24.642Z,100881.42
2019-01-06T09:11:51.853Z,100878.19
2019-01-06T09:14:18.755Z,100886.39
2019-01-06T09:16:45.725Z,100883.48
2019-01-06T09:19:12.617Z,100890.08
2019-01-06T09:21:39.487Z,100890.29
2019-01-06T09:24:06.694Z,100893.50
2019-01-06T09:26:34.092Z,100894.27
2019-01-06T09:29:01.931Z,100892.94
2019-01-06T09:31:29.130Z,100894.73
2019-01-06T09:33:56.587Z,100896.88
2019-01-06T09:36:23.603Z,100895.17
2019-01-06T09:38:50.555Z,100899.84
2019-01-06T09:41:17.785Z,100901.05
2019-01-06T09:43:44.839Z,100899.33
2019-01-06T09:46:11.741Z,100894.17
2019-01-06T09:48:38.934Z,100906.36
2019-01-06T09:51:05.865Z,100896.48
2019-01-06T09:53:32.830Z,100894.56
2019-01-06T09:55:59.850Z,100897.69
2019-01-06T09:58:27.962Z,100904.64
2019-01-06T10:00:55.222Z,100911.67
2019-01-06T10:03:22.190Z,100900.95
2019-01-06T10:05:49.454Z,100908.92
2019-01-06T10:08:16.739Z,100901.44
2019-01-06T10:10:43.980Z,100906.92
2019-01-06T10:13:11.240Z,100903.89
2019-01-06T10:15:38.178Z,100913.36
2019-01-06T10:18:05.130Z,100917.48
2019-01-06T10:20:32.392Z,100912.48
2019-01-06T10:22:59.658Z,100921.89
2019-01-06T10:25:26.608Z,100917.30
2019-01-06T10:27:53.781Z,100919.91
2019-01-06T10:30:20.830Z,100920.52
2019-01-06T10:32:47.722Z,100915.88
2019-01-06T10:35:15.079Z,100921.72
2019-01-06T10:37:42.043Z,100909.39
2019-01-06T10:40:09.127Z,100915.61
2019-01-06T10:42:36.133Z,100910.01
2019-01-06T10:45:03.390Z,100915.04
2019-01-06T10:47:33.921Z,100916.88
2019-01-06T10:50:01.003Z,100920.94
2019-01-06T10:52:29.646Z,100920.05
2019-01-06T10:54:56.603Z,100913.73
2019-01-06T10:57:23.551Z,100916.39
2019-01-06T10:59:50.490Z,100920.52
2019-01-06T11:02:17.794Z,100917.48
2019-01-06T11:04:44.749Z,100916.78
2019-01-06T11:07:12.054Z,100917.44
2019-01-06T11:09:39.281Z,100923.08
2019-01-06T11:12:06.276Z,100925.73
2019-01-06T11:14:33.139Z,100933.53
2019-01-06T11:17:00.299Z,100928.84
2019-01-06T11:19:27.263Z,100929.09
2019-01-06T11:21:55.592Z,100931.11
2019-01-06T11:24:22.517Z,100930.29
2019-01-06T11:26:49.454Z,100931.02
2019-01-06T11:29:16.638Z,100928.67
2019-01-06T11:31:43.599Z,100932.19
2019-01-06T11:34:10.902Z,100929.62
2019-01-06T11:36:45.535Z,100926.20
2019-01-06T11:39:12.812Z,100927.81
2019-01-06T11:41:39.806Z,100930.98
2019-01-06T11:44:06.806Z,100921.47
2019-01-06T11:46:33.785Z,100917.09
2019-01-06T11:49:00.782Z,100910.08
2019-01-06T11:51:27.775Z,100909.98
2019-01-06T11:53:54.869Z,100912.02
2019-01-06T11:56:22.328Z,100902.95
2019-01-06T11:58:49.388Z,100904.36
2019-01-06T12:01:16.302Z,100903.38
2019-01-06T12:03:43.298Z,100903.81
2019-01-06T12:06:12.944Z,100908.42
2019-01-06T12:08:41.197Z,100914.75
2019-01-06T12:11:08.620Z,100909.07
2019-01-06T12:13:35.587Z,100911.67
2019-01-06T12:16:04.439Z,100914.84
2019-01-06T12:18:33.621Z,100911.53
2019-01-06T12:21:01.571Z,100910.02
2019-01-06T12:23:34.423Z,100910.98
2019-01-06T12:26:01.965Z,100901.13
2019-01-06T12:28:33.682Z,100909.07
2019-01-06T12:33:40.032Z,100913.72
2019-01-06T12:36:22.622Z,100917.13
2019-01-06T12:38:53.086Z,100923.24
2019-01-06T12:41:20.747Z,100926.20
2019-01-06T12:43:51.294Z,100932.39
2019-01-06T12:46:23.296Z,100930.10
2019-01-06T12:48:53.253Z,100934.18
2019-01-06T12:51:20.273Z,100935.48
2019-01-06T12:53:49.651Z,100931.06
2019-01-06T12:56:17.140Z,100924.86
2019-01-06T12:58:44.432Z,100933.11
2019-01-06T13:01:19.842Z,100934.32
2019-01-06T13:03:58.162Z,100935.02
2019-01-06T13:06:45.890Z,100938.61
2019-01-06T13:09:11.027Z,100934.63
2019-01-06T13:11:40.083Z,100940.16
2019-01-06T13:14:08.823Z,100953.70
2019-01-06T13:16:39.966Z,100945.21
2019-01-06T13:19:07.064Z,100939.39
2019-01-06T13:21:34.281Z,100943.29
2019-01-06T13:24:01.194Z,100948.16
2019-01-06T13:26:34.474Z,100951.79
2019-01-06T13:29:04.325Z,100957.30
2019-01-06T13:34:41.625Z,100959.03
2019-01-06T13:39:55.432Z,100966.28
2019-01-06T13:45:12.700Z,100960.17
2019-01-06T13:47:39.900Z,100971.20
2019-01-06T13:50:13.169Z,100969.58
2019-01-06T13:52:40.365Z,100970.11
2019-01-06T13:55:10.136Z,100969.14
2019-01-06T13:57:43.486Z,100971.49
2019-01-06T14:00:20.931Z,100972.95
2019-01-06T14:03:00.043Z,100979.11
2019-01-06T14:05:28.396Z,100978.38
2019-01-06T14:07:57.214Z,100981.38
2019-01-06T14:10:26.494Z,100987.22
2019-01-06T14:13:00.479Z,100985.61
2019-01-06T14:15:27.725Z,100985.22
2019-01-06T14:17:56.798Z,100983.76
2019-01-06T14:20:26.179Z,100991.12
2019-01-06T14:22:59.062Z,100990.98
2019-01-06T14:25:25.046Z,100998.33
2019-01-06T14:27:52.147Z,100995.61
2019-01-06T14:30:20.936Z,100999.18
2019-01-06T14:32:49.478Z,100998.77
2019-01-06T14:38:02.111Z,101006.34
2019-01-06T14:40:29.060Z,101002.09
2019-01-06T14:42:56.155Z,101006.98
2019-01-06T14:45:23.209Z,101009.39
2019-01-06T14:47:56.434Z,101008.23
2019-01-06T14:50:25.632Z,101003.34
2019-01-06T14:53:09.152Z,101004.79
2019-01-06T14:55:38.874Z,101001.02
2019-01-06T14:58:08.983Z,101008.34
2019-01-06T15:00:40.705Z,101007.03
2019-01-06T15:03:06.377Z,101009.00
2019-01-06T15:05:33.493Z,101012.43
2019-01-06T15:08:01.948Z,101016.64
2019-01-06T15:10:29.211Z,101015.88
2019-01-06T15:12:56.812Z,101015.44
2019-01-06T15:17:59.414Z,101019.75
2019-01-06T15:20:26.915Z,101014.94
2019-01-06T15:22:55.902Z,101010.73
2019-01-06T15:25:24.148Z,101014.70
2019-01-06T15:27:51.081Z,101018.69
2019-01-06T15:30:18.059Z,101014.56
2019-01-06T15:32:48.894Z,101023.16
2019-01-06T15:35:16.086Z,101018.56
2019-01-06T15:37:47.828Z,101015.27
2019-01-06T15:40:12.311Z,101016.83
2019-01-06T15:42:51.956Z,101026.48
2019-01-06T15:45:15.309Z,101029.02
2019-01-06T15:47:42.384Z,101024.03
2019-01-06T15:50:14.925Z,101022.98
2019-01-06T15:52:42.447Z,101030.03
2019-01-06T15:55:09.682Z,101027.47
2019-01-06T15:57:36.712Z,101035.16
2019-01-06T16:00:03.703Z,101028.77
2019-01-06T16:05:08.218Z,101029.07
2019-01-06T16:07:35.319Z,101030.09
2019-01-06T16:10:09.038Z,101036.42
2019-01-06T16:12:36.179Z,101031.23
2019-01-06T16:15:03.310Z,101037.33
2019-01-06T16:17:30.437Z,101042.28
2019-01-06T16:23:20.633Z,101034.24
2019-01-06T16:25:56.671Z,101030.48
2019-01-06T16:31:18.217Z,101027.47
2019-01-06T16:33:46.543Z,101034.19
2019-01-06T16:36:14.063Z,101031.52
2019-01-06T16:38:44.035Z,101033.28
2019-01-06T16:41:11.072Z,101031.39
2019-01-06T16:43:38.292Z,101033.47
2019-01-06T16:46:08.000Z,101026.32
2019-01-06T16:48:41.012Z,101019.92
2019-01-06T16:51:10.011Z,101021.11
2019-01-06T16:53:42.917Z,101023.03
2019-01-06T16:59:01.578Z,101016.68
2019-01-06T17:01:29.275Z,101013.97
2019-01-06T17:04:20.701Z,101015.63
2019-01-06T17:06:48.802Z,101017.13
2019-01-06T17:09:15.940Z,101019.91
2019-01-06T17:11:43.088Z,101016.74
2019-01-06T17:14:10.326Z,101019.20
2019-01-06T17:16:37.606Z,101013.97
2019-01-06T17:19:04.606Z,101016.74
2019-01-06T17:21:31.915Z,101015.14
2019-01-06T17:24:03.955Z,101013.78
2019-01-06T17:26:27.912Z,101018.66
2019-01-06T17:28:55.235Z,101015.77
2019-01-06T17:32:12.067Z,101013.63
2019-01-06T17:33:55.268Z,101016.58
2019-01-06T17:41:46.959Z,101020.61
2019-01-06T17:44:17.215Z,101024.63
2019-01-06T17:46:46.975Z,101027.81
2019-01-06T17:49:14.737Z,101030.91
2019-01-06T17:51:43.887Z,101031.14
2019-01-06T17:54:16.957Z,101036.78
2019-01-06T17:56:44.422Z,101037.91
2019-01-06T17:59:11.756Z,101033.42
2019-01-06T18:01:38.888Z,101037.30
2019-01-06T18:04:12.309Z,101035.98
2019-01-06T18:06:47.140Z,101034.38
2019-01-06T18:09:23.154Z,101037.63
2019-01-06T18:11:45.675Z,101050.00
2019-01-06T18:14:18.973Z,101041.12
2019-01-06T18:16:56.565Z,101044.41
2019-01-06T18:19:31.653Z,101045.02
2019-01-06T18:21:59.193Z,101050.16
2019-01-06T18:24:26.337Z,101054.75
2019-01-06T18:27:12.047Z,101056.58
2019-01-06T18:40:54.508Z,101035.55
2019-01-06T18:43:36.879Z,101034.59
2019-01-06T18:46:06.259Z,101042.33
2019-01-06T18:54:19.729Z,101042.28
2019-01-06T18:56:38.558Z,101047.31
2019-01-06T18:59:08.169Z,101045.22
2019-01-06T19:01:39.509Z,101043.05
2019-01-06T19:04:09.046Z,101044.69
2019-01-06T19:06:36.281Z,101046.47
2019-01-06T19:09:03.365Z,101053.41
2019-01-06T19:11:31.389Z,101047.94
2019-01-06T19:14:00.472Z,101044.34
2019-01-06T19:39:38.800Z,101049.83
2019-01-06T19:45:05.476Z,101047.45
2019-01-06T19:50:25.304Z,101052.30
2019-01-06T19:56:19.137Z,101052.53
2019-01-06T19:58:47.652Z,101058.17
2019-01-06T20:01:48.644Z,101064.12
2019-01-06T20:04:09.678Z,101067.13
2019-01-06T20:37:40.923Z,101055.18
2019-01-06T20:40:21.209Z,101054.55
2019-01-06T20:42:57.543Z,101055.96
2019-01-06T20:45:36.571Z,101058.42
2019-01-06T20:48:10.359Z,101055.23
2019-01-06T20:50:53.135Z,101049.73
2019-01-06T20:53:21.984Z,101060.45
2019-01-06T20:56:01.445Z,101049.28
2019-01-06T20:58:32.129Z,101056.42
2019-01-06T21:00:59.174Z,101049.87
